sensor_id;sensor_type;location;lat;lon;timestamp;P1;durP1;ratioP1;P2;durP2;ratioP2
23712;SDS011;12035;49.978;8.298;2023-11-19T00:00:33;3.17;;;1.10;;
23712;SDS011;12035;49.978;8.298;2023-11-19T00:05:30;1.20;;;0.90;;
23712;SDS011;12035;49.978;8.298;2023-11-19T00:10:29;4.43;;;1.40;;
23712;SDS011;12035;49.978;8.298;2023-11-19T00:15:26;1.80;;;1.02;;
23712;SDS011;12035;49.978;8.298;2023-11-19T00:20:23;4.53;;;1.90;;
23712;SDS011;12035;49.978;8.298;2023-11-19T00:25:20;3.03;;;1.20;;
23712;SDS011;12035;49.978;8.298;2023-11-19T00:30:19;2.15;;;1.38;;
23712;SDS011;12035;49.978;8.298;2023-11-19T00:35:16;2.65;;;1.38;;
23712;SDS011;12035;49.978;8.298;2023-11-19T00:40:13;1.75;;;1.00;;
23712;SDS011;12035;49.978;8.298;2023-11-19T00:45:13;2.05;;;0.98;;
23712;SDS011;12035;49.978;8.298;2023-11-19T00:50:11;1.95;;;1.10;;
23712;SDS011;12035;49.978;8.298;2023-11-19T00:55:08;2.30;;;1.23;;
23712;SDS011;12035;49.978;8.298;2023-11-19T01:00:07;1.60;;;0.95;;
23712;SDS011;12035;49.978;8.298;2023-11-19T01:05:14;1.93;;;1.00;;
23712;SDS011;12035;49.978;8.298;2023-11-19T01:10:11;2.88;;;1.10;;
23712;SDS011;12035;49.978;8.298;2023-11-19T01:15:08;1.30;;;0.80;;
23712;SDS011;12035;49.978;8.298;2023-11-19T01:20:06;2.20;;;1.10;;
23712;SDS011;12035;49.978;8.298;2023-11-19T01:25:08;1.10;;;0.70;;
23712;SDS011;12035;49.978;8.298;2023-11-19T01:30:06;1.13;;;0.68;;
23712;SDS011;12035;49.978;8.298;2023-11-19T01:35:07;1.48;;;0.63;;
23712;SDS011;12035;49.978;8.298;2023-11-19T01:40:05;1.35;;;0.60;;
23712;SDS011;12035;49.978;8.298;2023-11-19T01:45:07;1.42;;;0.75;;
23712;SDS011;12035;49.978;8.298;2023-11-19T01:50:05;1.65;;;0.80;;
23712;SDS011;12035;49.978;8.298;2023-11-19T01:55:04;0.93;;;0.60;;
23712;SDS011;12035;49.978;8.298;2023-11-19T02:00:03;0.63;;;0.40;;
23712;SDS011;12035;49.978;8.298;2023-11-19T02:05:06;1.08;;;0.60;;
23712;SDS011;12035;49.978;8.298;2023-11-19T02:10:04;1.88;;;1.10;;
23712;SDS011;12035;49.978;8.298;2023-11-19T02:15:09;2.03;;;1.30;;
23712;SDS011;12035;49.978;8.298;2023-11-19T02:20:06;2.80;;;1.77;;
23712;SDS011;12035;49.978;8.298;2023-11-19T02:25:07;4.35;;;2.28;;
23712;SDS011;12035;49.978;8.298;2023-11-19T02:30:13;3.55;;;2.25;;
23712;SDS011;12035;49.978;8.298;2023-11-19T02:35:10;2.88;;;2.08;;
23712;SDS011;12035;49.978;8.298;2023-11-19T02:40:07;3.42;;;2.40;;
23712;SDS011;12035;49.978;8.298;2023-11-19T02:45:05;3.25;;;2.15;;
23712;SDS011;12035;49.978;8.298;2023-11-19T02:50:10;3.08;;;1.90;;
23712;SDS011;12035;49.978;8.298;2023-11-19T02:55:10;3.10;;;2.05;;
23712;SDS011;12035;49.978;8.298;2023-11-19T03:00:08;4.13;;;1.90;;
23712;SDS011;12035;49.978;8.298;2023-11-19T03:05:07;2.90;;;1.98;;
23712;SDS011;12035;49.978;8.298;2023-11-19T03:10:06;3.15;;;2.10;;
23712;SDS011;12035;49.978;8.298;2023-11-19T03:15:04;2.95;;;2.25;;
23712;SDS011;12035;49.978;8.298;2023-11-19T03:20:03;3.22;;;1.98;;
23712;SDS011;12035;49.978;8.298;2023-11-19T03:25:06;3.95;;;1.77;;
23712;SDS011;12035;49.978;8.298;2023-11-19T03:30:04;2.92;;;1.75;;
23712;SDS011;12035;49.978;8.298;2023-11-19T03:35:05;2.80;;;1.60;;
23712;SDS011;12035;49.978;8.298;2023-11-19T03:40:06;3.40;;;1.92;;
23712;SDS011;12035;49.978;8.298;2023-11-19T03:45:05;2.53;;;1.73;;
23712;SDS011;12035;49.978;8.298;2023-11-19T03:50:04;2.20;;;1.60;;
23712;SDS011;12035;49.978;8.298;2023-11-19T03:55:02;6.35;;;1.50;;
23712;SDS011;12035;49.978;8.298;2023-11-19T04:00:04;1.98;;;1.25;;
23712;SDS011;12035;49.978;8.298;2023-11-19T04:05:05;2.58;;;1.77;;
23712;SDS011;12035;49.978;8.298;2023-11-19T04:10:03;2.17;;;1.40;;
23712;SDS011;12035;49.978;8.298;2023-11-19T04:15:03;2.40;;;1.30;;
23712;SDS011;12035;49.978;8.298;2023-11-19T04:20:02;3.80;;;2.05;;
23712;SDS011;12035;49.978;8.298;2023-11-19T04:25:01;2.42;;;1.65;;
23712;SDS011;12035;49.978;8.298;2023-11-19T04:29:59;2.35;;;1.65;;
23712;SDS011;12035;49.978;8.298;2023-11-19T04:34:57;2.15;;;1.33;;
23712;SDS011;12035;49.978;8.298;2023-11-19T04:39:54;4.13;;;1.55;;
23712;SDS011;12035;49.978;8.298;2023-11-19T04:44:51;1.80;;;1.25;;
23712;SDS011;12035;49.978;8.298;2023-11-19T04:49:50;2.33;;;1.25;;
23712;SDS011;12035;49.978;8.298;2023-11-19T04:54:47;1.92;;;1.30;;
23712;SDS011;12035;49.978;8.298;2023-11-19T04:59:44;2.22;;;1.40;;
23712;SDS011;12035;49.978;8.298;2023-11-19T05:04:42;2.30;;;1.30;;
23712;SDS011;12035;49.978;8.298;2023-11-19T05:09:40;2.20;;;1.50;;
23712;SDS011;12035;49.978;8.298;2023-11-19T05:14:38;3.33;;;1.30;;
23712;SDS011;12035;49.978;8.298;2023-11-19T05:19:35;2.00;;;1.17;;
23712;SDS011;12035;49.978;8.298;2023-11-19T05:24:32;2.65;;;1.50;;
23712;SDS011;12035;49.978;8.298;2023-11-19T05:29:30;2.25;;;1.30;;
23712;SDS011;12035;49.978;8.298;2023-11-19T05:34:27;3.17;;;1.38;;
23712;SDS011;12035;49.978;8.298;2023-11-19T05:39:24;2.05;;;1.10;;
23712;SDS011;12035;49.978;8.298;2023-11-19T05:44:21;2.15;;;0.88;;
23712;SDS011;12035;49.978;8.298;2023-11-19T05:49:20;1.67;;;1.00;;
23712;SDS011;12035;49.978;8.298;2023-11-19T05:54:17;1.40;;;0.95;;
23712;SDS011;12035;49.978;8.298;2023-11-19T05:59:14;1.58;;;0.98;;
23712;SDS011;12035;49.978;8.298;2023-11-19T06:04:12;1.45;;;0.75;;
23712;SDS011;12035;49.978;8.298;2023-11-19T06:09:12;1.00;;;0.70;;
23712;SDS011;12035;49.978;8.298;2023-11-19T06:14:09;1.15;;;0.80;;
23712;SDS011;12035;49.978;8.298;2023-11-19T06:19:06;1.27;;;0.80;;
23712;SDS011;12035;49.978;8.298;2023-11-19T06:24:05;1.13;;;0.80;;
23712;SDS011;12035;49.978;8.298;2023-11-19T06:29:05;1.38;;;0.98;;
23712;SDS011;12035;49.978;8.298;2023-11-19T06:34:02;1.10;;;0.80;;
23712;SDS011;12035;49.978;8.298;2023-11-19T06:39:00;1.23;;;0.73;;
23712;SDS011;12035;49.978;8.298;2023-11-19T06:43:57;1.33;;;0.80;;
23712;SDS011;12035;49.978;8.298;2023-11-19T06:48:56;1.90;;;1.10;;
23712;SDS011;12035;49.978;8.298;2023-11-19T06:53:53;1.10;;;0.70;;
23712;SDS011;12035;49.978;8.298;2023-11-19T06:58:52;0.95;;;0.75;;
23712;SDS011;12035;49.978;8.298;2023-11-19T07:03:49;3.25;;;0.80;;
23712;SDS011;12035;49.978;8.298;2023-11-19T07:08:48;1.52;;;0.90;;
23712;SDS011;12035;49.978;8.298;2023-11-19T07:13:45;1.20;;;0.85;;
23712;SDS011;12035;49.978;8.298;2023-11-19T07:18:42;2.65;;;1.50;;
23712;SDS011;12035;49.978;8.298;2023-11-19T07:23:39;4.45;;;1.45;;
23712;SDS011;12035;49.978;8.298;2023-11-19T07:28:38;2.50;;;1.63;;
23712;SDS011;12035;49.978;8.298;2023-11-19T07:33:36;5.03;;;2.47;;
23712;SDS011;12035;49.978;8.298;2023-11-19T07:38:33;3.80;;;2.35;;
23712;SDS011;12035;49.978;8.298;2023-11-19T07:43:30;2.83;;;1.60;;
23712;SDS011;12035;49.978;8.298;2023-11-19T07:48:29;2.03;;;1.42;;
23712;SDS011;12035;49.978;8.298;2023-11-19T07:53:26;3.67;;;2.03;;
23712;SDS011;12035;49.978;8.298;2023-11-19T07:58:23;4.40;;;2.25;;
23712;SDS011;12035;49.978;8.298;2023-11-19T08:03:20;4.20;;;2.22;;
23712;SDS011;12035;49.978;8.298;2023-11-19T08:08:19;3.53;;;2.42;;
23712;SDS011;12035;49.978;8.298;2023-11-19T08:13:17;3.38;;;2.30;;
23712;SDS011;12035;49.978;8.298;2023-11-19T08:18:14;4.30;;;2.38;;
23712;SDS011;12035;49.978;8.298;2023-11-19T08:23:11;3.53;;;1.85;;
23712;SDS011;12035;49.978;8.298;2023-11-19T08:28:09;3.20;;;1.70;;
23712;SDS011;12035;49.978;8.298;2023-11-19T08:33:06;3.63;;;2.13;;
23712;SDS011;12035;49.978;8.298;2023-11-19T08:38:03;6.03;;;3.03;;
23712;SDS011;12035;49.978;8.298;2023-11-19T08:43:00;3.88;;;2.50;;
23712;SDS011;12035;49.978;8.298;2023-11-19T08:48:00;3.60;;;2.20;;
23712;SDS011;12035;49.978;8.298;2023-11-19T08:52:57;4.82;;;2.33;;
23712;SDS011;12035;49.978;8.298;2023-11-19T08:57:54;3.88;;;2.05;;
23712;SDS011;12035;49.978;8.298;2023-11-19T09:02:51;4.47;;;2.40;;
23712;SDS011;12035;49.978;8.298;2023-11-19T09:07:50;4.53;;;2.13;;
23712;SDS011;12035;49.978;8.298;2023-11-19T09:12:47;3.80;;;1.52;;
23712;SDS011;12035;49.978;8.298;2023-11-19T09:17:44;3.28;;;1.55;;
23712;SDS011;12035;49.978;8.298;2023-11-19T09:22:41;3.88;;;1.40;;
23712;SDS011;12035;49.978;8.298;2023-11-19T09:27:40;4.20;;;1.00;;
23712;SDS011;12035;49.978;8.298;2023-11-19T09:32:37;2.08;;;0.80;;
23712;SDS011;12035;49.978;8.298;2023-11-19T09:37:34;6.35;;;1.50;;
23712;SDS011;12035;49.978;8.298;2023-11-19T09:42:31;5.18;;;1.10;;
23712;SDS011;12035;49.978;8.298;2023-11-19T09:47:40;7.03;;;1.08;;
23712;SDS011;12035;49.978;8.298;2023-11-19T09:52:39;5.25;;;1.02;;
23712;SDS011;12035;49.978;8.298;2023-11-19T09:57:36;5.93;;;1.08;;
23712;SDS011;12035;49.978;8.298;2023-11-19T10:02:36;5.32;;;1.20;;
23712;SDS011;12035;49.978;8.298;2023-11-19T10:07:33;7.80;;;1.52;;
23712;SDS011;12035;49.978;8.298;2023-11-19T10:12:31;6.07;;;1.60;;
23712;SDS011;12035;49.978;8.298;2023-11-19T10:17:28;7.20;;;1.20;;
23712;SDS011;12035;49.978;8.298;2023-11-19T10:22:26;7.55;;;1.30;;
23712;SDS011;12035;49.978;8.298;2023-11-19T10:27:24;7.95;;;1.10;;
23712;SDS011;12035;49.978;8.298;2023-11-19T10:32:21;6.55;;;1.48;;
23712;SDS011;12035;49.978;8.298;2023-11-19T10:37:28;5.38;;;1.27;;
23712;SDS011;12035;49.978;8.298;2023-11-19T10:42:27;7.18;;;1.70;;
23712;SDS011;12035;49.978;8.298;2023-11-19T10:47:24;8.35;;;1.23;;
23712;SDS011;12035;49.978;8.298;2023-11-19T10:52:23;9.07;;;1.77;;
23712;SDS011;12035;49.978;8.298;2023-11-19T10:57:24;7.50;;;1.63;;
23712;SDS011;12035;49.978;8.298;2023-11-19T11:02:27;5.55;;;0.95;;
23712;SDS011;12035;49.978;8.298;2023-11-19T11:07:27;5.75;;;1.20;;
23712;SDS011;12035;49.978;8.298;2023-11-19T11:12:26;8.30;;;1.30;;
23712;SDS011;12035;49.978;8.298;2023-11-19T11:17:24;7.53;;;2.22;;
23712;SDS011;12035;49.978;8.298;2023-11-19T11:22:24;9.07;;;1.52;;
23712;SDS011;12035;49.978;8.298;2023-11-19T11:27:34;6.28;;;1.40;;
23712;SDS011;12035;49.978;8.298;2023-11-19T11:33:02;7.90;;;1.52;;
23712;SDS011;12035;49.978;8.298;2023-11-19T11:48:43;5.55;;;1.30;;
23712;SDS011;12035;49.978;8.298;2023-11-19T11:53:44;5.03;;;1.48;;
23712;SDS011;12035;49.978;8.298;2023-11-19T11:58:45;5.18;;;1.10;;
23712;SDS011;12035;49.978;8.298;2023-11-19T12:03:42;4.97;;;0.95;;
23712;SDS011;12035;49.978;8.298;2023-11-19T12:08:40;6.78;;;1.10;;
23712;SDS011;12035;49.978;8.298;2023-11-19T12:13:53;6.53;;;1.40;;
23712;SDS011;12035;49.978;8.298;2023-11-19T12:18:57;4.25;;;1.50;;
23712;SDS011;12035;49.978;8.298;2023-11-19T12:24:00;6.28;;;1.40;;
23712;SDS011;12035;49.978;8.298;2023-11-19T12:29:04;6.50;;;1.70;;
23712;SDS011;12035;49.978;8.298;2023-11-19T12:34:10;6.20;;;1.50;;
23712;SDS011;12035;49.978;8.298;2023-11-19T12:39:10;7.75;;;1.55;;
23712;SDS011;12035;49.978;8.298;2023-11-19T12:44:11;6.13;;;1.40;;
23712;SDS011;12035;49.978;8.298;2023-11-19T12:49:08;7.68;;;1.70;;
23712;SDS011;12035;49.978;8.298;2023-11-19T12:54:08;5.85;;;1.40;;
23712;SDS011;12035;49.978;8.298;2023-11-19T12:59:13;9.10;;;1.73;;
23712;SDS011;12035;49.978;8.298;2023-11-19T13:04:16;9.82;;;1.75;;
23712;SDS011;12035;49.978;8.298;2023-11-19T13:09:23;6.97;;;1.30;;
23712;SDS011;12035;49.978;8.298;2023-11-19T13:14:22;7.63;;;1.48;;
23712;SDS011;12035;49.978;8.298;2023-11-19T13:19:19;7.65;;;1.52;;
23712;SDS011;12035;49.978;8.298;2023-11-19T13:24:19;9.27;;;1.77;;
23712;SDS011;12035;49.978;8.298;2023-11-19T13:29:16;4.60;;;1.00;;
23712;SDS011;12035;49.978;8.298;2023-11-19T13:34:15;5.10;;;1.20;;
23712;SDS011;12035;49.978;8.298;2023-11-19T13:39:12;5.88;;;1.38;;
23712;SDS011;12035;49.978;8.298;2023-11-19T13:44:17;4.90;;;1.27;;
23712;SDS011;12035;49.978;8.298;2023-11-19T13:49:16;5.80;;;1.23;;
23712;SDS011;12035;49.978;8.298;2023-11-19T13:54:15;6.65;;;1.50;;
23712;SDS011;12035;49.978;8.298;2023-11-19T13:59:12;9.07;;;1.45;;
23712;SDS011;12035;49.978;8.298;2023-11-19T14:04:09;9.55;;;1.90;;
23712;SDS011;12035;49.978;8.298;2023-11-19T14:09:07;4.72;;;1.30;;
23712;SDS011;12035;49.978;8.298;2023-11-19T14:14:04;7.95;;;1.40;;
23712;SDS011;12035;49.978;8.298;2023-11-19T14:19:01;5.55;;;1.70;;
23712;SDS011;12035;49.978;8.298;2023-11-19T14:23:59;9.32;;;1.50;;
23712;SDS011;12035;49.978;8.298;2023-11-19T14:28:57;4.95;;;1.10;;
23712;SDS011;12035;49.978;8.298;2023-11-19T14:33:54;6.15;;;1.20;;
23712;SDS011;12035;49.978;8.298;2023-11-19T14:38:51;6.25;;;1.30;;
23712;SDS011;12035;49.978;8.298;2023-11-19T14:43:48;6.00;;;1.20;;
23712;SDS011;12035;49.978;8.298;2023-11-19T14:48:46;8.48;;;1.40;;
23712;SDS011;12035;49.978;8.298;2023-11-19T14:53:43;8.23;;;1.30;;
23712;SDS011;12035;49.978;8.298;2023-11-19T14:58:40;5.35;;;1.70;;
23712;SDS011;12035;49.978;8.298;2023-11-19T15:03:39;7.30;;;1.50;;
23712;SDS011;12035;49.978;8.298;2023-11-19T15:08:38;5.43;;;1.00;;
23712;SDS011;12035;49.978;8.298;2023-11-19T15:13:35;6.43;;;1.60;;
23712;SDS011;12035;49.978;8.298;2023-11-19T15:18:32;8.32;;;1.60;;
23712;SDS011;12035;49.978;8.298;2023-11-19T15:23:29;8.10;;;1.42;;
23712;SDS011;12035;49.978;8.298;2023-11-19T15:28:28;4.55;;;1.05;;
23712;SDS011;12035;49.978;8.298;2023-11-19T15:33:25;8.60;;;1.10;;
23712;SDS011;12035;49.978;8.298;2023-11-19T15:38:22;8.90;;;1.92;;
23712;SDS011;12035;49.978;8.298;2023-11-19T15:43:19;7.45;;;1.67;;
23712;SDS011;12035;49.978;8.298;2023-11-19T15:48:19;7.30;;;1.33;;
23712;SDS011;12035;49.978;8.298;2023-11-19T15:53:16;6.60;;;1.75;;
23712;SDS011;12035;49.978;8.298;2023-11-19T15:58:13;6.88;;;1.40;;
23712;SDS011;12035;49.978;8.298;2023-11-19T16:03:10;11.32;;;1.27;;
23712;SDS011;12035;49.978;8.298;2023-11-19T16:08:09;4.60;;;1.05;;
23712;SDS011;12035;49.978;8.298;2023-11-19T16:13:07;5.95;;;1.17;;
23712;SDS011;12035;49.978;8.298;2023-11-19T16:18:04;5.00;;;1.40;;
23712;SDS011;12035;49.978;8.298;2023-11-19T16:23:04;5.13;;;1.10;;
23712;SDS011;12035;49.978;8.298;2023-11-19T16:28:03;8.02;;;1.55;;
23712;SDS011;12035;49.978;8.298;2023-11-19T16:33:02;7.28;;;1.38;;
23712;SDS011;12035;49.978;8.298;2023-11-19T16:37:59;6.22;;;1.25;;
23712;SDS011;12035;49.978;8.298;2023-11-19T16:42:57;3.55;;;1.10;;
23712;SDS011;12035;49.978;8.298;2023-11-19T16:47:55;10.18;;;1.73;;
23712;SDS011;12035;49.978;8.298;2023-11-19T16:52:52;8.10;;;1.52;;
23712;SDS011;12035;49.978;8.298;2023-11-19T16:57:50;6.18;;;1.10;;
23712;SDS011;12035;49.978;8.298;2023-11-19T17:02:47;8.57;;;1.25;;
23712;SDS011;12035;49.978;8.298;2023-11-19T17:07:46;5.68;;;1.63;;
23712;SDS011;12035;49.978;8.298;2023-11-19T17:12:43;7.68;;;1.52;;
23712;SDS011;12035;49.978;8.298;2023-11-19T17:17:40;5.85;;;1.80;;
23712;SDS011;12035;49.978;8.298;2023-11-19T17:22:37;6.22;;;1.90;;
23712;SDS011;12035;49.978;8.298;2023-11-19T17:27:37;6.03;;;1.40;;
23712;SDS011;12035;49.978;8.298;2023-11-19T17:32:34;6.05;;;1.20;;
23712;SDS011;12035;49.978;8.298;2023-11-19T17:37:31;6.32;;;1.25;;
23712;SDS011;12035;49.978;8.298;2023-11-19T17:42:28;8.32;;;1.70;;
23712;SDS011;12035;49.978;8.298;2023-11-19T17:47:27;5.22;;;1.35;;
23712;SDS011;12035;49.978;8.298;2023-11-19T17:52:24;5.78;;;1.08;;
23712;SDS011;12035;49.978;8.298;2023-11-19T17:57:21;6.53;;;1.40;;
23712;SDS011;12035;49.978;8.298;2023-11-19T18:02:19;5.82;;;1.45;;
23712;SDS011;12035;49.978;8.298;2023-11-19T18:07:18;8.40;;;1.42;;
23712;SDS011;12035;49.978;8.298;2023-11-19T18:12:15;9.20;;;1.92;;
23712;SDS011;12035;49.978;8.298;2023-11-19T18:17:12;8.32;;;1.23;;
23712;SDS011;12035;49.978;8.298;2023-11-19T18:22:10;6.32;;;1.63;;
23712;SDS011;12035;49.978;8.298;2023-11-19T18:27:10;7.95;;;2.08;;
23712;SDS011;12035;49.978;8.298;2023-11-19T18:32:09;7.97;;;1.75;;
23712;SDS011;12035;49.978;8.298;2023-11-19T18:37:07;8.68;;;2.03;;
23712;SDS011;12035;49.978;8.298;2023-11-19T18:42:05;8.65;;;1.98;;
23712;SDS011;12035;49.978;8.298;2023-11-19T18:47:04;11.50;;;1.67;;
23712;SDS011;12035;49.978;8.298;2023-11-19T18:52:02;7.03;;;1.33;;
23712;SDS011;12035;49.978;8.298;2023-11-19T18:57:02;8.57;;;1.80;;
23712;SDS011;12035;49.978;8.298;2023-11-19T19:02:01;8.65;;;1.65;;
23712;SDS011;12035;49.978;8.298;2023-11-19T19:07:01;7.18;;;1.80;;
23712;SDS011;12035;49.978;8.298;2023-11-19T19:12:00;10.85;;;2.40;;
23712;SDS011;12035;49.978;8.298;2023-11-19T19:16:57;6.95;;;1.45;;
23712;SDS011;12035;49.978;8.298;2023-11-19T19:21:56;9.65;;;1.67;;
23712;SDS011;12035;49.978;8.298;2023-11-19T19:26:53;6.88;;;1.60;;
23712;SDS011;12035;49.978;8.298;2023-11-19T19:31:52;10.20;;;1.90;;
23712;SDS011;12035;49.978;8.298;2023-11-19T19:36:49;7.03;;;1.98;;
23712;SDS011;12035;49.978;8.298;2023-11-19T19:41:47;9.23;;;1.80;;
23712;SDS011;12035;49.978;8.298;2023-11-19T19:46:46;6.65;;;1.80;;
23712;SDS011;12035;49.978;8.298;2023-11-19T19:51:44;8.48;;;2.00;;
23712;SDS011;12035;49.978;8.298;2023-11-19T19:56:41;7.50;;;1.92;;
23712;SDS011;12035;49.978;8.298;2023-11-19T20:01:40;11.48;;;1.98;;
23712;SDS011;12035;49.978;8.298;2023-11-19T20:06:37;6.95;;;1.85;;
23712;SDS011;12035;49.978;8.298;2023-11-19T20:11:34;9.52;;;1.75;;
23712;SDS011;12035;49.978;8.298;2023-11-19T20:16:31;7.75;;;1.77;;
23712;SDS011;12035;49.978;8.298;2023-11-19T20:21:30;8.93;;;1.80;;
23712;SDS011;12035;49.978;8.298;2023-11-19T20:26:29;7.75;;;1.50;;
23712;SDS011;12035;49.978;8.298;2023-11-19T20:31:27;8.48;;;1.85;;
23712;SDS011;12035;49.978;8.298;2023-11-19T20:36:24;8.65;;;1.60;;
23712;SDS011;12035;49.978;8.298;2023-11-19T20:41:22;9.75;;;1.70;;
23712;SDS011;12035;49.978;8.298;2023-11-19T20:46:19;5.28;;;1.38;;
23712;SDS011;12035;49.978;8.298;2023-11-19T20:51:17;8.73;;;1.60;;
23712;SDS011;12035;49.978;8.298;2023-11-19T20:56:14;9.50;;;1.58;;
23712;SDS011;12035;49.978;8.298;2023-11-19T21:01:14;7.00;;;1.45;;
23712;SDS011;12035;49.978;8.298;2023-11-19T21:06:11;13.90;;;2.38;;
23712;SDS011;12035;49.978;8.298;2023-11-19T21:11:11;8.40;;;1.55;;
23712;SDS011;12035;49.978;8.298;2023-11-19T21:16:08;7.32;;;1.55;;
23712;SDS011;12035;49.978;8.298;2023-11-19T21:21:07;9.75;;;2.00;;
23712;SDS011;12035;49.978;8.298;2023-11-19T21:26:04;9.65;;;1.60;;
23712;SDS011;12035;49.978;8.298;2023-11-19T21:31:01;8.73;;;1.38;;
23712;SDS011;12035;49.978;8.298;2023-11-19T21:35:59;8.88;;;1.73;;
23712;SDS011;12035;49.978;8.298;2023-11-19T21:40:57;9.18;;;1.58;;
23712;SDS011;12035;49.978;8.298;2023-11-19T21:45:56;11.15;;;1.80;;
23712;SDS011;12035;49.978;8.298;2023-11-19T21:50:54;10.70;;;2.30;;
23712;SDS011;12035;49.978;8.298;2023-11-19T21:55:52;7.55;;;1.65;;
23712;SDS011;12035;49.978;8.298;2023-11-19T22:00:50;9.57;;;1.55;;
23712;SDS011;12035;49.978;8.298;2023-11-19T22:05:47;8.75;;;1.33;;
23712;SDS011;12035;49.978;8.298;2023-11-19T22:10:45;9.90;;;1.92;;
23712;SDS011;12035;49.978;8.298;2023-11-19T22:15:42;10.82;;;2.00;;
23712;SDS011;12035;49.978;8.298;2023-11-19T22:20:40;10.50;;;2.10;;
23712;SDS011;12035;49.978;8.298;2023-11-19T22:25:37;10.38;;;1.90;;
23712;SDS011;12035;49.978;8.298;2023-11-19T22:30:34;10.68;;;1.60;;
23712;SDS011;12035;49.978;8.298;2023-11-19T22:35:32;8.93;;;1.67;;
23712;SDS011;12035;49.978;8.298;2023-11-19T22:40:30;9.48;;;2.53;;
23712;SDS011;12035;49.978;8.298;2023-11-19T22:45:27;9.55;;;1.92;;
23712;SDS011;12035;49.978;8.298;2023-11-19T22:50:24;8.45;;;1.80;;
23712;SDS011;12035;49.978;8.298;2023-11-19T22:55:21;8.70;;;1.90;;
23712;SDS011;12035;49.978;8.298;2023-11-19T23:00:20;10.48;;;1.92;;
23712;SDS011;12035;49.978;8.298;2023-11-19T23:05:22;8.88;;;1.40;;
23712;SDS011;12035;49.978;8.298;2023-11-19T23:10:22;10.40;;;2.40;;
23712;SDS011;12035;49.978;8.298;2023-11-19T23:15:21;10.93;;;1.85;;
23712;SDS011;12035;49.978;8.298;2023-11-19T23:20:20;7.00;;;1.40;;
23712;SDS011;12035;49.978;8.298;2023-11-19T23:25:17;11.40;;;2.00;;
23712;SDS011;12035;49.978;8.298;2023-11-19T23:30:14;11.40;;;1.65;;
23712;SDS011;12035;49.978;8.298;2023-11-19T23:35:12;7.45;;;1.50;;
23712;SDS011;12035;49.978;8.298;2023-11-19T23:40:10;7.40;;;1.42;;
23712;SDS011;12035;49.978;8.298;2023-11-19T23:45:08;8.55;;;1.73;;
23712;SDS011;12035;49.978;8.298;2023-11-19T23:50:06;5.80;;;1.50;;
23712;SDS011;12035;49.978;8.298;2023-11-19T23:55:06;8.95;;;2.15;;
